EST,Max TemperatureF,Mean TemperatureF,Min TemperatureF,Max Dew PointF,MeanDew PointF,Min DewpointF,Max Humidity, Mean Humidity, Min Humidity, Max Sea Level PressureIn, Mean Sea Level PressureIn, Min Sea Level PressureIn, Max VisibilityMiles, Mean VisibilityMiles, Min VisibilityMiles, Max Wind SpeedMPH, Mean Wind SpeedMPH, Max Gust SpeedMPH,PrecipitationIn, CloudCover, Events, WindDirDegrees
2012-12-1,57,46,35,41,36,30,87,70,51,30.36,30.30,30.26,10,10,10,12,1,,0.00,0,,211
2012-12-2,62,52,42,54,46,36,100,80,48,30.27,30.21,30.14,10,8,2,17,4,29,0.17,3,Rain,203
2012-12-3,62,58,53,55,54,52,100,91,72,30.27,30.23,30.20,10,9,0,12,4,,0.07,5,Fog-Rain,196
2012-12-4,66,58,50,57,51,46,100,80,56,30.23,30.16,30.06,10,9,2,20,5,28,0.07,3,Rain,203
2012-12-5,48,39,30,48,36,27,100,83,57,30.30,30.25,30.14,10,10,2,13,7,20,0.21,3,Rain,308
2012-12-6,55,40,26,39,31,21,100,66,28,30.29,30.16,30.06,10,10,10,9,2,,0.00,1,,208
2012-12-7,53,50,48,52,50,39,100,98,71,30.06,29.99,29.90,10,6,0,9,2,,0.31,7,Fog-Rain,202
2012-12-8,57,54,50,55,52,46,100,91,67,30.04,29.94,29.89,10,9,2,13,7,18,0.49,7,Rain,227
2012-12-9,57,52,46,55,52,46,100,98,82,30.08,29.99,29.81,10,6,0,9,2,,0.44,5,Fog-Rain,173
2012-12-10,62,48,33,55,49,34,100,94,63,29.84,29.72,29.60,10,7,2,20,8,32,0.61,6,Rain,226
2012-12-11,35,32,30,36,30,25,100,93,75,30.22,30.04,29.83,10,8,2,12,6,17,0.02,7,Rain,248
2012-12-12,35,30,26,30,27,23,100,86,60,30.39,30.33,30.22,10,10,7,6,1,,0.00,0,,15
2012-12-13,44,34,23,28,23,14,100,71,29,30.40,30.34,30.28,10,10,8,6,2,,0.00,0,,74
2012-12-14,48,37,26,32,24,21,86,63,34,30.34,30.28,30.22,10,10,10,13,1,17,0.00,0,,212
2012-12-15,55,44,32,37,27,21,80,56,28,30.22,30.09,29.93,10,10,7,9,2,16,0.00,1,Rain,138
2012-12-16,57,52,46,52,46,36,87,75,51,29.93,29.84,29.77,10,10,8,14,6,20,0.00,4,,194
2012-12-17,57,52,46,52,46,43,100,82,63,29.80,29.70,29.57,10,9,2,16,2,28,0.34,6,Rain,214
2012-12-18,46,40,35,45,38,32,100,91,81,29.87,29.74,29.58,10,10,4,17,10,23,0.00,7,Rain,246
2012-12-19,42,38,33,36,34,30,100,79,65,30.14,30.00,29.79,10,10,5,14,6,23,0.00,5,,239
2012-12-20,51,43,35,45,35,28,100,75,41,30.10,29.73,29.41,10,8,2,28,8,41,0.28,3,Rain,167
2012-12-21,35,30,26,32,26,23,100,87,75,29.79,29.57,29.48,10,4,0,30,18,39,5.53,8,Rain-Snow,242
2012-12-22,30,26,21,28,23,19,100,83,69,30.12,30.03,29.79,10,7,2,20,13,32,1.64,7,Rain-Snow,244
2012-12-23,44,32,21,28,22,14,93,67,45,30.08,29.99,29.91,10,10,10,15,6,25,0.00,0,,210
2012-12-24,42,35,28,43,33,25,100,95,86,29.97,29.86,29.75,10,7,0,16,2,21,0.06,5,Fog-Rain,229
2012-12-25,39,36,32,39,34,32,100,96,81,30.13,30.06,29.91,10,8,2,10,5,,0.00,5,,356
2012-12-26,42,37,32,37,33,30,100,89,66,30.05,29.67,29.47,10,7,2,22,8,30,0.85,4,Rain,70
2012-12-27,35,32,28,36,29,27,100,98,93,30.11,29.94,29.60,10,6,2,22,5,26,0.26,8,Rain-Snow,263
2012-12-28,32,30,28,32,29,27,100,96,87,30.13,30.04,29.87,10,9,7,7,0,,0.00,6,Rain,27
2012-12-29,33,30,28,34,32,28,100,99,93,29.97,29.76,29.64,10,5,0,20,7,25,1.42,7,Rain-Snow,252
2012-12-30,28,24,21,28,22,19,100,85,74,30.38,30.27,29.98,10,7,1,18,11,30,2.05,7,Rain-Snow,242
2012-12-31,33,27,21,21,20,19,93,71,56,30.33,30.19,30.06,10,10,10,16,7,23,0.00,1,,207